Time;durP1;ratioP1;P1;durP2;ratioP2;P2;SDS_P1;SDS_P2;PMS_P1;PMS_P2;Temp;Humidity;BMP_temperature;BMP_pressure;BME280_temperature;BME280_humidity;BME280_pressure;Samples;Min_cycle;Max_cycle;Signal;HPM_P1;HPM_P2
2023/03/08 00:01:13;;;;;;;7.90;3.13;;;;;;;4.27;61.54;94952.50;5018302;28;20216;-71
2023/03/08 00:03:40;;;;;;;8.40;2.90;;;;;;;4.07;61.79;94940.06;5016878;28;20236;-72
2023/03/08 00:06:08;;;;;;;7.30;2.93;;;;;;;4.28;61.59;94938.50;5017354;28;20692;-71
2023/03/08 00:08:35;;;;;;;15.37;3.37;;;;;;;4.14;61.53;94933.19;5017723;28;20205;-70
2023/03/08 00:11:05;;;;;;;9.30;4.00;;;;;;;4.22;61.58;94931.34;5017531;28;20202;-71
2023/03/08 00:13:31;;;;;;;7.53;3.23;;;;;;;4.16;62.06;94931.22;5016937;28;20228;-71
2023/03/08 00:16:00;;;;;;;6.83;2.80;;;;;;;4.21;62.00;94931.53;5016942;28;20678;-71
2023/03/08 00:18:26;;;;;;;12.83;3.37;;;;;;;4.12;62.56;94940.34;5017465;28;20296;-72
2023/03/08 00:20:58;;;;;;;20.10;3.83;;;;;;;4.24;62.38;94939.03;5017129;28;20205;-72
2023/03/08 00:23:25;;;;;;;8.73;3.73;;;;;;;4.17;62.79;94945.06;5017242;28;20599;-71
2023/03/08 00:25:51;;;;;;;9.30;3.60;;;;;;;4.13;62.94;94949.81;5015993;28;20221;-71
2023/03/08 00:28:18;;;;;;;10.80;4.37;;;;;;;4.14;62.78;94959.25;5016906;28;20212;-71
2023/03/08 00:30:45;;;;;;;8.23;3.50;;;;;;;4.07;63.36;94958.28;5017089;28;20217;-72
2023/03/08 00:33:13;;;;;;;12.23;2.97;;;;;;;4.20;62.68;94957.75;5017723;28;20222;-71
2023/03/08 00:35:39;;;;;;;9.17;3.67;;;;;;;4.07;63.45;94966.13;5015950;28;21081;-71
2023/03/08 00:38:05;;;;;;;11.87;4.00;;;;;;;4.09;63.09;94973.78;5016694;28;21100;-71
2023/03/08 00:40:32;;;;;;;10.40;4.80;;;;;;;4.08;63.32;94965.13;5017605;28;20699;-72
2023/03/08 00:42:59;;;;;;;7.37;3.07;;;;;;;4.00;63.06;94966.97;5016407;28;20889;-70
2023/03/08 00:45:25;;;;;;;10.60;4.63;;;;;;;4.00;63.41;94975.59;5016194;28;20590;-71
2023/03/08 00:47:52;;;;;;;9.00;4.40;;;;;;;4.05;63.40;94973.31;5017308;28;20215;-72
2023/03/08 00:50:19;;;;;;;11.63;3.70;;;;;;;4.02;63.72;94976.25;5016356;28;20213;-71
2023/03/08 00:52:46;;;;;;;9.30;4.23;;;;;;;4.05;63.93;94970.69;5016391;28;20247;-71
2023/03/08 00:55:12;;;;;;;7.93;3.07;;;;;;;3.90;63.78;94979.38;5017190;28;20201;-70
2023/03/08 00:57:39;;;;;;;13.53;4.33;;;;;;;4.07;63.86;94968.72;5016576;28;20208;-72
2023/03/08 01:00:09;;;;;;;10.53;4.07;;;;;;;4.12;64.49;94976.84;5016690;28;20206;-71
2023/03/08 01:02:36;;;;;;;7.73;3.27;;;;;;;4.03;63.69;94972.66;5016987;28;20241;-72
2023/03/08 01:05:02;;;;;;;8.23;2.43;;;;;;;4.04;63.68;94979.50;5016515;28;20232;-72
2023/03/08 01:07:30;;;;;;;10.20;3.90;;;;;;;4.20;63.78;94989.88;5016413;28;20294;-71
2023/03/08 01:09:56;;;;;;;6.17;2.40;;;;;;;4.10;64.00;94991.88;5016335;28;20216;-72
2023/03/08 01:12:24;;;;;;;9.47;3.10;;;;;;;4.14;63.90;94981.88;5017281;28;20232;-71
2023/03/08 01:14:50;;;;;;;9.87;4.10;;;;;;;4.18;64.07;94981.41;5015785;28;20744;-72
2023/03/08 01:17:17;;;;;;;9.40;3.87;;;;;;;4.15;64.36;94967.88;5016391;28;20213;-72
2023/03/08 01:19:43;;;;;;;9.93;4.17;;;;;;;4.07;64.52;94960.91;5016712;28;20209;-71
2023/03/08 01:22:10;;;;;;;13.00;4.03;;;;;;;4.03;64.66;94959.63;5016600;28;20221;-71
2023/03/08 01:24:37;;;;;;;7.20;3.50;;;;;;;4.30;64.25;94948.75;5015773;28;20598;-72
2023/03/08 01:27:04;;;;;;;13.13;3.87;;;;;;;4.22;64.48;94946.19;5016294;28;20206;-71
2023/03/08 01:29:30;;;;;;;9.00;3.60;;;;;;;4.28;63.92;94945.53;5016619;28;20205;-72
2023/03/08 01:31:57;;;;;;;8.13;3.87;;;;;;;4.02;64.82;94931.97;5016338;28;20212;-71
2023/03/08 01:34:24;;;;;;;14.63;4.80;;;;;;;4.11;64.50;94927.50;5016191;28;20206;-71
2023/03/08 01:36:50;;;;;;;10.27;4.13;;;;;;;4.01;65.13;94932.94;5016402;28;20288;-72
2023/03/08 01:39:16;;;;;;;8.83;3.77;;;;;;;4.12;65.13;94926.53;5016344;28;20220;-72
2023/03/08 01:41:45;;;;;;;10.60;4.07;;;;;;;4.15;64.95;94924.41;5018537;28;20289;-71
2023/03/08 01:44:15;;;;;;;10.97;4.17;;;;;;;4.03;65.20;94920.53;5019615;28;20237;-72
2023/03/08 01:46:41;;;;;;;8.70;4.00;;;;;;;3.91;65.33;94921.09;5020116;28;20202;-72
2023/03/08 01:49:11;;;;;;;10.77;3.87;;;;;;;4.02;65.99;94915.50;5020421;28;20210;-72
2023/03/08 01:51:42;;;;;;;15.90;4.30;;;;;;;3.99;65.96;94913.22;5020781;28;20208;-72
2023/03/08 01:54:13;;;;;;;9.70;4.07;;;;;;;3.98;66.15;94912.41;5019458;28;20208;-72
2023/03/08 01:56:41;;;;;;;12.73;4.40;;;;;;;3.81;66.42;94910.84;5020238;28;20197;-71
2023/03/08 01:59:10;;;;;;;9.70;4.07;;;;;;;3.86;66.49;94907.75;5020280;28;20197;-72
2023/03/08 02:01:37;;;;;;;9.13;3.67;;;;;;;3.83;65.92;94902.84;5019929;28;21046;-72
2023/03/08 02:04:03;;;;;;;12.67;4.40;;;;;;;3.81;66.82;94905.63;5019590;28;20248;-72
2023/03/08 02:06:30;;;;;;;12.60;4.47;;;;;;;3.76;66.36;94904.53;5019917;28;20565;-72
2023/03/08 02:08:57;;;;;;;11.70;4.63;;;;;;;3.77;66.47;94904.34;5019323;28;20220;-72
2023/03/08 02:11:25;;;;;;;11.57;3.93;;;;;;;3.71;67.83;94894.59;5020053;28;20217;-70
2023/03/08 02:13:52;;;;;;;11.67;4.33;;;;;;;3.50;67.97;94901.34;5019727;28;20229;-72
2023/03/08 02:16:21;;;;;;;12.77;4.20;;;;;;;3.68;67.67;94894.94;5019137;28;20223;-73
2023/03/08 02:18:52;;;;;;;15.13;4.40;;;;;;;3.66;67.46;94886.47;5019737;28;21049;-72
2023/03/08 02:21:19;;;;;;;14.17;4.60;;;;;;;3.48;68.54;94892.09;5019874;28;20210;-72
2023/03/08 02:23:47;;;;;;;12.67;4.27;;;;;;;3.54;68.48;94899.22;5019168;28;20593;-72
2023/03/08 02:26:13;;;;;;;10.40;4.30;;;;;;;3.43;68.59;94883.97;5019110;28;20233;-72
2023/03/08 02:28:40;;;;;;;8.63;3.87;;;;;;;3.52;67.99;94883.75;5019465;28;20209;-71
2023/03/08 02:31:06;;;;;;;15.37;3.97;;;;;;;3.47;69.13;94880.03;5019544;28;20205;-72
2023/03/08 02:33:33;;;;;;;9.57;3.93;;;;;;;3.31;68.72;94875.69;5019134;28;20218;-71
2023/03/08 02:36:01;;;;;;;11.57;3.87;;;;;;;3.29;69.47;94874.22;5019272;28;20197;-72
2023/03/08 02:38:27;;;;;;;8.60;3.77;;;;;;;3.35;69.10;94855.34;5019608;28;20208;-71
2023/03/08 02:40:55;;;;;;;11.20;4.37;;;;;;;3.47;68.58;94864.41;5019233;28;20209;-71
2023/03/08 02:43:22;;;;;;;12.73;3.80;;;;;;;3.39;69.09;94852.25;5019931;28;20220;-71
2023/03/08 02:45:48;;;;;;;9.77;4.10;;;;;;;3.39;69.20;94861.84;5018758;28;20232;-71
2023/03/08 02:48:16;;;;;;;10.40;4.40;;;;;;;3.33;69.36;94867.72;5019474;28;20210;-72
2023/03/08 02:50:42;;;;;;;12.70;4.47;;;;;;;3.30;69.45;94860.25;5018932;28;20208;-72
2023/03/08 02:53:09;;;;;;;8.70;4.00;;;;;;;3.41;69.70;94855.50;5019140;28;20346;-72
2023/03/08 02:55:36;;;;;;;11.73;4.10;;;;;;;3.36;69.97;94856.97;5018142;28;20667;-71
2023/03/08 02:58:06;;;;;;;13.70;4.17;;;;;;;3.43;69.44;94857.94;5019045;28;20209;-73
2023/03/08 03:00:32;;;;;;;12.37;4.70;;;;;;;3.26;69.72;94851.13;5019044;28;20210;-72
2023/03/08 03:02:59;;;;;;;11.70;4.13;;;;;;;3.39;69.53;94847.03;5018922;28;20617;-72
2023/03/08 03:05:25;;;;;;;9.50;3.80;;;;;;;3.31;69.63;94835.81;5017703;28;20254;-72
2023/03/08 03:07:54;;;;;;;12.33;4.80;;;;;;;3.46;69.84;94837.56;5018680;28;20848;-73
2023/03/08 03:10:20;;;;;;;14.43;4.80;;;;;;;3.44;70.02;94836.13;5019307;28;20206;-71
2023/03/08 03:12:47;;;;;;;10.17;4.20;;;;;;;3.45;69.65;94832.53;5018923;28;20229;-71
2023/03/08 03:15:15;;;;;;;11.57;4.10;;;;;;;3.59;69.79;94840.47;5018099;28;20197;-72
2023/03/08 03:17:41;;;;;;;13.50;4.60;;;;;;;3.50;69.96;94832.84;5019032;28;20204;-72
2023/03/08 03:20:10;;;;;;;22.27;4.97;;;;;;;3.48;70.69;94827.00;5018630;28;20231;-72
2023/03/08 03:22:37;;;;;;;11.00;4.23;;;;;;;3.51;70.31;94824.84;5018246;28;20233;-71
2023/03/08 03:25:04;;;;;;;12.73;4.73;;;;;;;3.55;70.43;94814.91;5018581;28;20231;-71
2023/03/08 03:27:30;;;;;;;14.70;4.77;;;;;;;3.54;71.09;94824.53;5018443;28;20231;-72
2023/03/08 03:29:57;;;;;;;13.57;4.63;;;;;;;3.49;71.33;94815.56;5017883;28;20216;-72
2023/03/08 03:32:25;;;;;;;10.43;4.50;;;;;;;3.64;71.86;94825.16;5018286;28;20704;-72
2023/03/08 03:34:51;;;;;;;11.70;4.43;;;;;;;3.61;71.32;94819.47;5017884;28;20216;-72
2023/03/08 03:37:18;;;;;;;13.47;4.90;;;;;;;3.50;71.55;94806.78;5018431;28;20212;-71
2023/03/08 03:39:44;;;;;;;10.10;4.40;;;;;;;3.58;71.21;94811.97;5018429;28;20216;-72
2023/03/08 03:42:11;;;;;;;13.47;4.87;;;;;;;3.66;71.17;94795.31;5018218;28;20228;-72
2023/03/08 03:44:37;;;;;;;12.40;4.37;;;;;;;3.62;72.00;94795.84;5017408;28;20236;-71
2023/03/08 03:47:04;;;;;;;14.70;5.30;;;;;;;3.54;71.80;94795.06;5018116;28;20217;-71
2023/03/08 03:49:32;;;;;;;13.70;4.53;;;;;;;3.72;71.59;94797.25;5018282;28;20205;-71
2023/03/08 03:51:58;;;;;;;14.63;5.47;;;;;;;3.70;71.39;94799.22;5017618;28;20712;-71
2023/03/08 03:54:25;;;;;;;15.13;5.27;;;;;;;3.78;71.18;94791.38;5015825;28;20209;-71
2023/03/08 03:56:52;;;;;;;17.87;6.40;;;;;;;3.72;71.52;94797.25;5017882;28;20212;-72
2023/03/08 03:59:18;;;;;;;13.33;5.20;;;;;;;3.83;71.80;94783.84;5017732;28;20212;-72
2023/03/08 04:01:45;;;;;;;15.00;4.70;;;;;;;3.71;71.45;94785.19;5017879;28;20204;-72
2023/03/08 04:04:11;;;;;;;15.20;5.53;;;;;;;3.73;71.45;94777.25;5017200;28;20198;-72
2023/03/08 04:06:39;;;;;;;21.00;5.77;;;;;;;3.89;72.02;94782.34;5017137;28;21380;-72
2023/03/08 04:09:08;;;;;;;23.33;6.33;;;;;;;3.92;71.52;94777.63;5017462;28;21095;-71
2023/03/08 04:11:37;;;;;;;25.93;6.20;;;;;;;3.93;72.15;94781.03;5017912;28;20224;-71
2023/03/08 04:14:04;;;;;;;13.03;5.07;;;;;;;3.93;71.30;94779.22;5017225;28;20236;-72
2023/03/08 04:16:32;;;;;;;14.43;5.93;;;;;;;3.96;71.88;94768.47;5017676;28;20198;-71
2023/03/08 04:19:00;;;;;;;12.97;5.70;;;;;;;3.84;72.17;94769.81;5017335;28;20823;-72
2023/03/08 04:21:28;;;;;;;17.03;6.40;;;;;;;3.74;72.76;94764.03;5017398;28;20662;-73
2023/03/08 04:23:56;;;;;;;25.00;6.40;;;;;;;3.84;72.97;94758.59;5016649;28;20251;-71
2023/03/08 04:26:24;;;;;;;18.93;5.83;;;;;;;3.87;72.79;94758.25;5017541;28;20226;-70
2023/03/08 04:28:51;;;;;;;19.60;6.20;;;;;;;3.86;72.33;94756.66;5017320;28;20214;-71
2023/03/08 04:31:19;;;;;;;18.83;6.70;;;;;;;3.75;72.80;94744.81;5017034;28;20202;-73
2023/03/08 04:33:46;;;;;;;26.17;6.50;;;;;;;3.69;73.14;94745.50;5016489;28;20233;-72
2023/03/08 04:36:13;;;;;;;19.07;6.87;;;;;;;3.62;73.75;94737.75;5017790;28;20688;-72
2023/03/08 04:38:39;;;;;;;20.10;6.97;;;;;;;3.73;73.52;94735.56;5016860;28;20696;-72
2023/03/08 04:41:10;;;;;;;14.90;6.50;;;;;;;3.75;74.11;94729.19;5017031;28;20213;-73
2023/03/08 04:43:38;;;;;;;19.03;7.07;;;;;;;3.77;73.67;94723.81;5016644;28;21004;-72
2023/03/08 04:46:05;;;;;;;23.60;6.50;;;;;;;3.83;73.78;94713.53;5017758;28;20563;-72
2023/03/08 04:48:31;;;;;;;23.67;7.70;;;;;;;3.80;73.60;94711.25;5017273;28;20212;-71
2023/03/08 04:50:59;;;;;;;19.73;7.03;;;;;;;3.87;73.80;94706.16;5016636;28;20256;-72
2023/03/08 04:53:27;;;;;;;18.70;6.93;;;;;;;3.84;74.63;94703.91;5016118;28;20221;-72
2023/03/08 04:55:54;;;;;;;20.43;6.57;;;;;;;3.96;73.58;94698.13;5016915;28;20202;-73
2023/03/08 04:58:22;;;;;;;21.23;6.10;;;;;;;4.00;73.45;94703.78;5017361;28;20220;-72
2023/03/08 05:00:49;;;;;;;18.77;7.23;;;;;;;3.97;73.21;94707.56;5017343;28;20213;-71
2023/03/08 05:03:15;;;;;;;14.13;5.37;;;;;;;3.85;74.06;94698.50;5016504;28;20239;-73
2023/03/08 05:05:45;;;;;;;17.03;6.73;;;;;;;4.10;73.75;94702.56;5015673;28;20240;-71
2023/03/08 05:08:12;;;;;;;14.67;5.40;;;;;;;3.86;73.58;94704.53;5017071;28;20948;-72
2023/03/08 05:10:38;;;;;;;14.13;5.97;;;;;;;4.00;73.43;94699.38;5016808;28;20256;-72
2023/03/08 05:13:05;;;;;;;17.67;6.60;;;;;;;3.99;73.65;94702.97;5016423;28;20978;-71
2023/03/08 05:15:33;;;;;;;20.33;6.53;;;;;;;4.15;73.49;94692.44;5016436;28;20201;-72
2023/03/08 05:17:59;;;;;;;17.47;6.70;;;;;;;4.03;74.45;94695.63;5016847;28;20202;-72
2023/03/08 05:20:25;;;;;;;15.20;6.13;;;;;;;3.94;74.64;94702.69;5016592;28;20214;-72
2023/03/08 05:22:52;;;;;;;20.00;7.63;;;;;;;4.05;74.65;94698.84;5016890;28;20244;-72
2023/03/08 05:25:18;;;;;;;17.03;6.13;;;;;;;3.95;75.11;94698.28;5015938;28;20601;-72
2023/03/08 05:27:45;;;;;;;18.77;6.30;;;;;;;3.97;75.19;94699.75;5016371;28;20202;-71
2023/03/08 05:30:12;;;;;;;21.13;7.57;;;;;;;4.13;74.79;94697.00;5016314;28;20206;-72
2023/03/08 05:32:40;;;;;;;14.97;6.50;;;;;;;4.10;75.64;94697.34;5016661;28;20221;-71
2023/03/08 05:35:08;;;;;;;17.77;6.83;;;;;;;4.12;74.53;94690.16;5015811;28;20213;-73
2023/03/08 05:37:34;;;;;;;27.37;7.93;;;;;;;4.12;74.83;94684.16;5016720;28;20206;-71
2023/03/08 05:40:00;;;;;;;20.67;7.80;;;;;;;4.11;74.24;94683.34;5016778;28;20213;-72
2023/03/08 05:42:30;;;;;;;18.47;7.50;;;;;;;4.13;74.75;94676.16;5016299;28;20225;-72
2023/03/08 05:44:56;;;;;;;22.43;7.50;;;;;;;4.12;74.34;94669.31;5015715;28;20201;-72
2023/03/08 05:47:23;;;;;;;31.07;8.77;;;;;;;4.22;74.45;94675.88;5016623;28;20209;-72
2023/03/08 05:49:52;;;;;;;30.40;10.13;;;;;;;4.29;74.25;94668.19;5016213;28;20228;-72
2023/03/08 05:52:18;;;;;;;26.47;9.37;;;;;;;4.15;74.90;94665.53;5016054;28;20230;-72
2023/03/08 05:54:45;;;;;;;20.83;7.57;;;;;;;4.16;74.19;94669.78;5016203;28;20689;-72
2023/03/08 05:57:11;;;;;;;28.27;8.53;;;;;;;4.08;74.90;94673.25;5016119;28;20403;-71
2023/03/08 05:59:38;;;;;;;22.23;7.93;;;;;;;4.13;74.45;94675.34;5016002;28;20198;-71
2023/03/08 06:02:04;;;;;;;23.43;8.17;;;;;;;4.06;74.69;94664.81;5016896;28;20225;-71
2023/03/08 06:04:31;;;;;;;22.00;7.30;;;;;;;4.03;74.84;94670.34;5015477;28;20204;-72
2023/03/08 06:06:59;;;;;;;19.93;6.90;;;;;;;4.18;74.74;94675.63;5016350;28;20241;-71
2023/03/08 06:09:25;;;;;;;21.30;7.87;;;;;;;4.12;74.66;94678.94;5017651;28;20209;-71
2023/03/08 06:11:52;;;;;;;26.37;6.90;;;;;;;4.12;74.62;94679.72;5016056;28;20210;-72
2023/03/08 06:14:18;;;;;;;19.17;7.63;;;;;;;4.14;74.17;94680.38;5015523;28;20209;-73
2023/03/08 06:16:47;;;;;;;19.60;7.27;;;;;;;4.15;75.16;94684.59;5015765;28;20205;-72
2023/03/08 06:19:13;;;;;;;20.43;7.07;;;;;;;4.16;74.64;94677.59;5015838;28;21034;-71
2023/03/08 06:21:40;;;;;;;23.33;7.70;;;;;;;4.20;75.21;94682.28;5015960;28;20212;-72
2023/03/08 06:24:08;;;;;;;20.83;7.97;;;;;;;4.26;75.21;94666.75;5015283;28;20212;-72
2023/03/08 06:26:35;;;;;;;26.63;8.00;;;;;;;4.18;75.35;94668.59;5015612;28;20815;-72
2023/03/08 06:29:01;;;;;;;21.73;7.07;;;;;;;4.30;74.62;94667.19;5018971;28;20677;-72
2023/03/08 06:31:28;;;;;;;22.57;7.80;;;;;;;4.35;74.37;94659.66;5019360;28;20971;-72
2023/03/08 06:33:54;;;;;;;30.57;8.23;;;;;;;4.29;74.57;94657.78;5018467;28;20573;-71
2023/03/08 06:36:22;;;;;;;17.13;7.20;;;;;;;4.24;75.17;94657.47;5019716;28;20221;-72
2023/03/08 06:38:49;;;;;;;23.33;8.70;;;;;;;4.24;75.22;94663.50;5019308;28;20670;-72
2023/03/08 06:41:19;;;;;;;31.30;8.63;;;;;;;4.35;75.72;94665.69;5019577;28;20205;-72
2023/03/08 06:43:46;;;;;;;30.63;7.97;;;;;;;4.31;74.98;94658.38;5018038;28;20229;-72
2023/03/08 06:46:15;;;;;;;27.33;10.20;;;;;;;4.43;74.71;94649.13;5019737;28;20229;-72
2023/03/08 06:48:42;;;;;;;34.50;10.87;;;;;;;4.30;75.33;94643.72;5018733;28;20260;-72
2023/03/08 06:51:09;;;;;;;29.20;10.27;;;;;;;4.34;75.46;94640.59;5019651;28;20201;-72
2023/03/08 06:53:37;;;;;;;28.40;9.30;;;;;;;4.36;75.68;94640.41;5019283;28;20225;-72
2023/03/08 06:56:05;;;;;;;37.53;10.87;;;;;;;4.44;75.00;94641.16;5018626;28;20204;-72
2023/03/08 06:58:34;;;;;;;21.43;7.53;;;;;;;4.55;75.66;94647.72;5019138;28;20212;-72
2023/03/08 07:01:03;;;;;;;20.97;7.30;;;;;;;4.52;74.95;94642.84;5018726;28;20205;-72
2023/03/08 07:03:30;;;;;;;26.43;8.20;;;;;;;4.51;75.60;94636.81;5019138;28;20310;-72
2023/03/08 07:05:58;;;;;;;27.27;8.47;;;;;;;4.56;75.96;94641.53;5018381;28;20229;-71
2023/03/08 07:08:25;;;;;;;22.70;8.43;;;;;;;4.65;75.12;94635.22;5018882;28;20297;-72
2023/03/08 07:10:51;;;;;;;23.13;7.53;;;;;;;4.65;75.68;94630.81;5018792;28;20221;-72
2023/03/08 07:13:18;;;;;;;20.17;7.67;;;;;;;4.56;75.76;94625.88;5018958;28;20225;-72
2023/03/08 07:15:46;;;;;;;22.10;8.80;;;;;;;4.65;76.34;94622.19;5018251;28;20214;-72
2023/03/08 07:18:12;;;;;;;22.50;8.00;;;;;;;4.66;76.08;94615.97;5018883;28;20202;-72
2023/03/08 07:20:39;;;;;;;22.37;8.23;;;;;;;4.75;76.26;94612.25;5018696;28;20206;-71
2023/03/08 07:23:05;;;;;;;25.93;7.90;;;;;;;4.82;75.82;94591.31;5018654;28;20225;-72
2023/03/08 07:25:32;;;;;;;19.50;7.57;;;;;;;4.85;75.74;94580.50;5017741;28;20209;-72
2023/03/08 07:27:59;;;;;;;23.90;8.23;;;;;;;5.12;75.19;94566.75;5018601;28;20206;-71
2023/03/08 07:30:26;;;;;;;20.30;7.77;;;;;;;5.11;75.66;94565.13;5018481;28;20671;-72
2023/03/08 07:32:54;;;;;;;21.37;7.80;;;;;;;5.32;74.72;94565.19;5019714;28;20221;-72
2023/03/08 07:35:20;;;;;;;25.43;8.10;;;;;;;5.25;75.00;94566.91;5017986;28;20212;-72
2023/03/08 07:37:48;;;;;;;16.17;6.13;;;;;;;5.41;74.19;94565.84;5017491;28;20206;-71
2023/03/08 07:40:16;;;;;;;21.10;7.63;;;;;;;5.61;73.72;94552.81;5018022;28;20201;-72
2023/03/08 07:42:43;;;;;;;22.03;7.73;;;;;;;5.72;73.88;94560.13;5017600;28;20229;-72
2023/03/08 07:45:11;;;;;;;24.63;7.50;;;;;;;5.89;73.51;94560.69;5017865;28;20205;-72
2023/03/08 07:47:37;;;;;;;28.73;8.73;;;;;;;5.85;73.97;94555.03;5018080;28;20225;-72
2023/03/08 07:50:07;;;;;;;20.47;7.33;;;;;;;6.05;74.04;94541.09;5018055;28;20293;-72
2023/03/08 07:52:33;;;;;;;20.37;7.43;;;;;;;5.92;72.99;94544.63;5017832;28;20229;-72
2023/03/08 07:55:01;;;;;;;21.00;8.07;;;;;;;5.99;73.50;94540.28;5017730;28;20224;-72
2023/03/08 07:57:27;;;;;;;19.27;7.33;;;;;;;6.08;72.88;94532.91;5018323;28;20281;-72
2023/03/08 07:59:53;;;;;;;19.40;6.87;;;;;;;6.16;71.67;94527.53;5017481;28;20202;-72
2023/03/08 08:02:20;;;;;;;22.80;7.50;;;;;;;6.17;71.81;94526.53;5018157;28;20217;-72
2023/03/08 08:04:46;;;;;;;22.37;7.90;;;;;;;6.27;71.67;94524.34;5017420;28;20728;-72
2023/03/08 08:07:16;;;;;;;19.03;7.87;;;;;;;6.52;71.00;94520.28;5017377;28;20229;-72
2023/03/08 08:09:43;;;;;;;20.57;7.43;;;;;;;6.52;71.85;94525.50;5017801;28;20572;-72
2023/03/08 08:12:09;;;;;;;16.00;6.23;;;;;;;6.67;71.13;94518.34;5016765;28;20232;-72
2023/03/08 08:14:36;;;;;;;13.33;5.33;;;;;;;6.29;71.06;94514.53;5015116;28;20202;-72
2023/03/08 08:17:03;;;;;;;18.60;6.67;;;;;;;6.41;71.54;94515.59;5015946;28;20202;-72
2023/03/08 08:19:30;;;;;;;19.27;6.80;;;;;;;6.55;71.44;94517.25;5015511;28;20792;-71
2023/03/08 08:21:57;;;;;;;15.13;5.77;;;;;;;6.38;71.70;94504.72;5015948;28;20201;-72
2023/03/08 08:24:25;;;;;;;18.70;6.07;;;;;;;6.54;71.71;94509.63;5014937;28;20697;-72
2023/03/08 08:26:51;;;;;;;15.53;6.43;;;;;;;6.76;70.64;94493.63;5015344;28;21600;-72
2023/03/08 08:29:18;;;;;;;18.60;6.47;;;;;;;6.75;69.86;94497.22;5015652;28;20198;-72
2023/03/08 08:31:44;;;;;;;16.80;6.13;;;;;;;6.53;70.28;94508.81;5016170;28;20198;-71
2023/03/08 08:34:11;;;;;;;14.97;6.23;;;;;;;6.78;70.32;94496.84;5014784;28;20206;-75
2023/03/08 08:36:37;;;;;;;12.20;4.30;;;;;;;6.57;70.21;94493.53;5016034;28;20205;-76
2023/03/08 08:39:04;;;;;;;13.43;5.37;;;;;;;6.75;70.33;94499.84;5016201;28;20206;-74
2023/03/08 08:41:32;;;;;;;20.87;7.00;;;;;;;6.66;70.32;94508.88;5015667;28;20198;-73
2023/03/08 08:43:59;;;;;;;15.50;6.53;;;;;;;6.74;70.67;94495.63;5014542;28;20222;-72
2023/03/08 08:46:27;;;;;;;21.20;5.87;;;;;;;6.63;70.85;94487.50;5016524;28;20234;-72
2023/03/08 08:48:53;;;;;;;16.57;6.83;;;;;;;6.62;71.13;94473.63;5015831;28;20285;-72
2023/03/08 08:51:20;;;;;;;16.07;6.30;;;;;;;6.70;70.14;94463.78;5014666;28;20205;-72
2023/03/08 08:53:47;;;;;;;19.37;6.23;;;;;;;6.62;70.91;94452.72;5014946;28;20226;-72
2023/03/08 08:56:15;;;;;;;24.33;6.97;;;;;;;6.87;70.38;94446.75;5015739;28;20202;-72
2023/03/08 08:58:43;;;;;;;18.03;7.30;;;;;;;6.90;70.58;94427.22;5015342;28;20212;-72
2023/03/08 09:01:14;;;;;;;18.67;7.10;;;;;;;7.00;72.69;94417.16;5015102;28;20202;-72
2023/03/08 09:03:41;;;;;;;14.77;6.20;;;;;;;6.81;73.00;94415.28;5014853;28;20591;-72
2023/03/08 09:06:07;;;;;;;23.73;7.70;;;;;;;6.96;73.62;94401.06;5014720;28;20437;-73
2023/03/08 09:08:34;;;;;;;17.67;6.70;;;;;;;6.74;74.64;94406.63;5015776;28;20216;-72
2023/03/08 09:11:05;;;;;;;18.40;7.13;;;;;;;6.88;74.03;94408.28;5015046;28;20709;-72
2023/03/08 09:13:31;;;;;;;21.67;6.40;;;;;;;6.56;75.09;94398.53;5015096;28;20222;-72
2023/03/08 09:15:59;;;;;;;15.57;6.20;;;;;;;6.69;75.16;94403.78;5013982;28;20280;-72
2023/03/08 09:18:26;;;;;;;21.40;6.47;;;;;;;6.63;75.23;94391.50;5015769;28;20763;-72
2023/03/08 09:20:53;;;;;;;16.63;6.47;;;;;;;6.54;75.08;94395.28;5015390;28;20233;-72
2023/03/08 09:23:20;;;;;;;17.13;6.17;;;;;;;6.65;74.41;94386.88;5015836;28;20222;-72
2023/03/08 09:25:54;;;;;;;20.37;7.00;;;;;;;6.89;74.12;94378.47;5014810;28;20704;-72
2023/03/08 09:28:21;;;;;;;22.20;6.53;;;;;;;6.71;74.82;94399.97;5015265;28;20236;-72
2023/03/08 09:30:48;;;;;;;20.23;6.17;;;;;;;6.52;74.78;94401.72;5015603;28;20213;-72
2023/03/08 09:33:16;;;;;;;18.50;6.53;;;;;;;6.83;73.74;94402.81;5015750;28;20233;-72
2023/03/08 09:35:42;;;;;;;13.93;5.70;;;;;;;6.85;73.22;94390.34;5014635;28;20209;-72
2023/03/08 09:38:09;;;;;;;17.97;6.07;;;;;;;6.65;73.11;94391.31;5015127;28;20209;-72
2023/03/08 09:40:45;;;;;;;15.27;6.87;;;;;;;6.91;73.09;94382.50;5015354;28;20205;-72
2023/03/08 09:43:23;;;;;;;17.83;7.13;;;;;;;6.88;73.07;94380.28;5014564;28;20308;-72
2023/03/08 09:45:52;;;;;;;21.43;7.67;;;;;;;7.17;73.11;94371.25;5014168;28;20216;-72
2023/03/08 09:48:25;;;;;;;21.50;8.97;;;;;;;7.04;74.05;94369.44;5015336;28;20225;-72
2023/03/08 09:50:54;;;;;;;16.90;7.87;;;;;;;6.99;73.56;94378.91;5013560;28;20220;-72
2023/03/08 09:53:27;;;;;;;13.87;5.90;;;;;;;7.02;72.72;94368.81;5014343;28;20224;-72
2023/03/08 09:55:57;;;;;;;18.77;6.50;;;;;;;7.04;73.76;94369.44;5015348;28;20213;-72
2023/03/08 09:58:40;;;;;;;18.07;6.57;;;;;;;7.21;71.80;94362.78;5015803;28;20206;-72
2023/03/08 10:01:19;;;;;;;14.50;5.73;;;;;;;7.28;71.44;94346.06;5014535;28;20205;-72
2023/03/08 10:04:24;;;;;;;17.60;6.50;;;;;;;7.82;71.23;94361.50;5018201;28;20229;-72
2023/03/08 10:07:05;;;;;;;15.23;6.00;;;;;;;7.75;70.85;94351.03;5017276;28;20698;-72
2023/03/08 10:09:35;;;;;;;12.67;5.30;;;;;;;7.88;70.29;94345.75;5019097;28;20656;-72
2023/03/08 10:12:16;;;;;;;11.47;5.60;;;;;;;7.84;70.03;94347.19;5018489;28;20236;-72
2023/03/08 10:14:48;;;;;;;17.30;5.33;;;;;;;7.95;69.92;94341.28;5017579;28;21118;-72
2023/03/08 10:17:19;;;;;;;14.43;5.30;;;;;;;8.04;70.00;94324.31;5018421;28;20561;-72
2023/03/08 10:19:54;;;;;;;11.33;4.33;;;;;;;8.09;69.55;94322.66;5018794;28;20546;-72
2023/03/08 10:22:25;;;;;;;12.83;4.90;;;;;;;8.19;69.55;94327.50;5018130;28;20777;-72
2023/03/08 10:24:58;;;;;;;13.40;5.03;;;;;;;8.36;69.07;94328.63;5018028;28;20229;-72
2023/03/08 10:27:27;;;;;;;17.57;5.43;;;;;;;8.33;68.56;94324.63;5018568;28;20253;-72
2023/03/08 10:29:55;;;;;;;15.60;6.07;;;;;;;8.23;69.51;94320.84;5018811;28;20205;-72
2023/03/08 10:32:23;;;;;;;13.97;4.47;;;;;;;8.35;70.05;94311.28;5019038;28;20252;-72
2023/03/08 10:34:51;;;;;;;11.53;5.17;;;;;;;8.73;72.54;94305.81;5018079;28;20246;-72
2023/03/08 10:37:21;;;;;;;12.77;4.10;;;;;;;8.77;68.13;94309.63;5018072;28;20570;-72
2023/03/08 10:39:51;;;;;;;9.50;4.33;;;;;;;8.63;68.56;94307.28;5018443;28;20275;-72
2023/03/08 10:42:21;;;;;;;7.23;3.93;;;;;;;8.73;68.34;94302.38;5018538;28;20222;-71
2023/03/08 10:44:54;;;;;;;7.77;4.00;;;;;;;8.76;68.98;94300.13;5017497;28;20237;-72
2023/03/08 10:47:22;;;;;;;13.77;5.47;;;;;;;8.68;69.13;94302.19;5018195;28;20233;-72
2023/03/08 10:49:50;;;;;;;6.07;2.63;;;;;;;8.66;68.86;94294.53;5018399;28;20693;-72
2023/03/08 10:52:27;;;;;;;8.80;3.97;;;;;;;8.92;69.09;94301.44;5018320;28;20222;-72
2023/03/08 10:55:05;;;;;;;11.13;4.73;;;;;;;9.05;69.68;94294.25;5017484;28;20210;-72
2023/03/08 10:57:33;;;;;;;10.20;3.33;;;;;;;9.01;71.27;94300.16;5018152;28;20205;-72
2023/03/08 11:00:10;;;;;;;8.20;3.67;;;;;;;9.05;70.30;94304.78;5017821;28;20210;-72
2023/03/08 11:02:37;;;;;;;6.07;2.90;;;;;;;8.85;70.90;94296.22;5017721;28;20222;-72
2023/03/08 11:05:19;;;;;;;7.97;3.20;;;;;;;9.13;71.08;94304.50;5017175;28;20210;-72
2023/03/08 11:07:53;;;;;;;10.00;3.17;;;;;;;9.05;72.11;94288.19;5017509;28;20234;-72
2023/03/08 11:10:22;;;;;;;9.10;3.40;;;;;;;9.10;71.35;94315.44;5017566;28;20201;-71
2023/03/08 11:12:50;;;;;;;8.17;3.50;;;;;;;9.00;71.92;94307.22;5017580;28;20232;-72
2023/03/08 11:15:19;;;;;;;8.43;2.97;;;;;;;9.05;71.79;94299.53;5016354;28;20206;-72
2023/03/08 11:17:55;;;;;;;5.50;2.50;;;;;;;9.24;71.76;94298.53;5017112;28;20873;-71
2023/03/08 11:20:26;;;;;;;8.83;4.00;;;;;;;9.34;72.29;94297.03;5017416;28;20210;-72
2023/03/08 11:23:15;;;;;;;7.13;2.73;;;;;;;9.48;71.21;94295.91;5017102;28;20240;-72
2023/03/08 11:25:45;;;;;;;6.47;3.40;;;;;;;9.44;71.95;94286.81;5016347;28;20214;-72
2023/03/08 11:28:39;;;;;;;9.13;3.57;;;;;;;9.49;72.11;94283.56;5017418;28;20254;-72
2023/03/08 11:31:18;;;;;;;8.60;3.03;;;;;;;9.70;71.98;94282.09;5018084;28;20207;-72
2023/03/08 11:34:14;;;;;;;5.67;2.60;;;;;;;9.80;71.92;94274.50;5016926;28;20612;-72
2023/03/08 11:36:47;;;;;;;4.43;2.47;;;;;;;9.79;73.08;94295.78;5017404;28;20233;-72
2023/03/08 11:39:20;;;;;;;1.60;1.47;;;;;;;9.74;73.13;94296.41;5017931;28;20209;-72